Sumterville, FL (33585)

1:41 PM EST on January 26, 2015 (GMT -0500)
SB Farms | Change Station
CLOSE
Current Station
Personal Weather Station
Location: Center Hill, FL
Elevation: 118 ft
Nearby Weather Stations
Active Advisory: Lake Wind Advisory

Elev 118 ft 28.68 °N, 82.01 °W | Updated 4 minutes ago

Clear
Clear
60.5 °F
Feels Like 60.5 °F
N
12.0
Wind Variable Wind from WSW
Gusts 22.0 mph

Today
High -- | Low -- °F
--% Chance of Precip.
Yesterday
High -- | Low -- °F
Precip. -- in
7:19 AM 6:02 PM
Waxing Crescent, 45% visible
Pressure 29.87 in
Visibility 10.0 miles
Clouds Clear
Dew Point 49 °F
Humidity 65%
Rainfall 0.09 in
Snow Depth Not available.
UV 7 out of 12
Pollen 8.50 out of 12
Air Quality Not available.
Flu Activity Not available.
METAR KLEE 261753Z 28019G32KT 10SM CLR 17/06 A2987 RMK AO2 PK WND 29033/1708 SLP115 T01670056 10172 20128 58014

More Conditions Fewer Conditions

Pressure 29.87 in
Visibility 10.0 miles
Clouds Clear
Dew Point 49 °F
Humidity 65%
Rainfall 0.09 in
Snow Depth Not available.
UV 7 out of 12
Pollen 8.50 out of 12
Air Quality Not available.
Flu Activity Not available.
METAR KLEE 261753Z 28019G32KT 10SM CLR 17/06 A2987 RMK AO2 PK WND 29033/1708 SLP115 T01670056 10172 20128 58014

More Conditions Fewer Conditions

10-Day Weather Forecast

Almanac

Astronomy

Jan. 26, 2015 Rise Set
Actual Time
Civil Twilight
Nautical Twilight
Astronomical Twilight
Moon
Length of Visible Light
Length of Day
Tomorrow will be .
, % of the Moon is Illuminated

Today's Extremes

State Highs State Lows

Community

WunderPhotos

Upload Photos

1,790,312 photos uploaded!

WunderBlogs® & News

Nearby

Air Quality

  Air Quality AQ Index Pollutant
Not available.

Snow Depth

Station Depth Elevation

Earthquake Activity

City Distance Mag. Time & Date
Minimum magnitude displayed is 2.5.

Coastal Water Temperatures

Place Temperature

Nearby Weather Stations